sensor_id;sensor_type;location;lat;lon;timestamp;temperature;humidity
23568;DHT22;11962;50.838;4.430;2023-02-08T00:01:18;2.00;99.90
23568;DHT22;11962;50.838;4.430;2023-02-08T00:03:44;2.00;99.90
23568;DHT22;11962;50.838;4.430;2023-02-08T00:06:11;2.00;99.90
23568;DHT22;11962;50.838;4.430;2023-02-08T00:08:37;2.00;99.90
23568;DHT22;11962;50.838;4.430;2023-02-08T00:11:04;2.00;99.90
23568;DHT22;11962;50.838;4.430;2023-02-08T00:13:31;1.90;99.90
23568;DHT22;11962;50.838;4.430;2023-02-08T00:15:57;1.80;99.90
23568;DHT22;11962;50.838;4.430;2023-02-08T00:18:23;1.80;99.90
23568;DHT22;11962;50.838;4.430;2023-02-08T00:20:50;1.80;99.90
23568;DHT22;11962;50.838;4.430;2023-02-08T00:23:17;1.80;99.90
23568;DHT22;11962;50.838;4.430;2023-02-08T00:25:43;1.80;99.90
23568;DHT22;11962;50.838;4.430;2023-02-08T00:28:13;1.80;99.90
23568;DHT22;11962;50.838;4.430;2023-02-08T00:30:39;1.70;99.90
23568;DHT22;11962;50.838;4.430;2023-02-08T00:33:06;1.70;99.90
23568;DHT22;11962;50.838;4.430;2023-02-08T00:35:32;1.70;99.90
23568;DHT22;11962;50.838;4.430;2023-02-08T00:37:58;1.70;99.90
23568;DHT22;11962;50.838;4.430;2023-02-08T00:40:24;1.70;99.90
23568;DHT22;11962;50.838;4.430;2023-02-08T00:42:50;1.70;99.90
23568;DHT22;11962;50.838;4.430;2023-02-08T00:45:16;1.70;99.90
23568;DHT22;11962;50.838;4.430;2023-02-08T00:47:41;1.70;99.90
23568;DHT22;11962;50.838;4.430;2023-02-08T00:50:09;1.70;99.90
23568;DHT22;11962;50.838;4.430;2023-02-08T00:52:35;1.70;99.90
23568;DHT22;11962;50.838;4.430;2023-02-08T00:55:01;1.60;99.90
23568;DHT22;11962;50.838;4.430;2023-02-08T00:57:26;1.60;99.90
23568;DHT22;11962;50.838;4.430;2023-02-08T00:59:52;1.60;99.90
23568;DHT22;11962;50.838;4.430;2023-02-08T01:02:18;1.60;99.90
23568;DHT22;11962;50.838;4.430;2023-02-08T01:04:44;1.60;99.90
23568;DHT22;11962;50.838;4.430;2023-02-08T01:07:09;1.60;99.90
23568;DHT22;11962;50.838;4.430;2023-02-08T01:09:35;1.50;99.90
23568;DHT22;11962;50.838;4.430;2023-02-08T01:12:01;1.50;99.90
23568;DHT22;11962;50.838;4.430;2023-02-08T01:14:27;1.40;99.90
23568;DHT22;11962;50.838;4.430;2023-02-08T01:16:53;1.40;99.90
23568;DHT22;11962;50.838;4.430;2023-02-08T01:19:19;1.40;99.90
23568;DHT22;11962;50.838;4.430;2023-02-08T01:21:44;1.40;99.90
23568;DHT22;11962;50.838;4.430;2023-02-08T01:24:10;1.30;99.90
23568;DHT22;11962;50.838;4.430;2023-02-08T01:26:37;1.40;99.90
23568;DHT22;11962;50.838;4.430;2023-02-08T01:29:03;1.40;99.90
23568;DHT22;11962;50.838;4.430;2023-02-08T01:31:36;1.40;99.90
23568;DHT22;11962;50.838;4.430;2023-02-08T01:34:09;1.40;99.90
23568;DHT22;11962;50.838;4.430;2023-02-08T01:36:36;1.30;99.90
23568;DHT22;11962;50.838;4.430;2023-02-08T01:39:03;1.30;99.90
23568;DHT22;11962;50.838;4.430;2023-02-08T01:41:32;1.30;99.90
23568;DHT22;11962;50.838;4.430;2023-02-08T01:44:05;1.30;99.90
23568;DHT22;11962;50.838;4.430;2023-02-08T01:46:33;1.30;99.90
23568;DHT22;11962;50.838;4.430;2023-02-08T01:49:03;1.30;99.90
23568;DHT22;11962;50.838;4.430;2023-02-08T01:51:34;1.30;99.90
23568;DHT22;11962;50.838;4.430;2023-02-08T01:54:04;1.30;99.90
23568;DHT22;11962;50.838;4.430;2023-02-08T01:56:33;1.30;99.90
23568;DHT22;11962;50.838;4.430;2023-02-08T01:59:03;1.30;99.90
23568;DHT22;11962;50.838;4.430;2023-02-08T02:01:30;1.20;99.90
23568;DHT22;11962;50.838;4.430;2023-02-08T02:04:20;1.20;99.90
23568;DHT22;11962;50.838;4.430;2023-02-08T02:06:49;1.20;99.90
23568;DHT22;11962;50.838;4.430;2023-02-08T02:09:46;1.20;99.90
23568;DHT22;11962;50.838;4.430;2023-02-08T02:12:15;1.10;99.90
23568;DHT22;11962;50.838;4.430;2023-02-08T02:14:42;1.00;99.90
23568;DHT22;11962;50.838;4.430;2023-02-08T02:17:14;0.90;99.90
23568;DHT22;11962;50.838;4.430;2023-02-08T02:31:37;0.90;99.90
23568;DHT22;11962;50.838;4.430;2023-02-08T02:39:44;0.90;99.90
23568;DHT22;11962;50.838;4.430;2023-02-08T02:42:28;0.90;99.90
23568;DHT22;11962;50.838;4.430;2023-02-08T02:47:58;0.90;99.90
23568;DHT22;11962;50.838;4.430;2023-02-08T02:50:43;0.90;99.90
23568;DHT22;11962;50.838;4.430;2023-02-08T02:56:22;0.90;99.90
23568;DHT22;11962;50.838;4.430;2023-02-08T02:58:49;0.80;99.90
23568;DHT22;11962;50.838;4.430;2023-02-08T03:01:23;0.80;99.90
23568;DHT22;11962;50.838;4.430;2023-02-08T03:03:55;0.80;99.90
23568;DHT22;11962;50.838;4.430;2023-02-08T03:23:31;0.70;99.90
23568;DHT22;11962;50.838;4.430;2023-02-08T03:26:05;0.70;99.90
23568;DHT22;11962;50.838;4.430;2023-02-08T03:31:55;0.60;99.90
23568;DHT22;11962;50.838;4.430;2023-02-08T03:34:34;0.60;99.90
23568;DHT22;11962;50.838;4.430;2023-02-08T03:37:08;0.60;99.90
23568;DHT22;11962;50.838;4.430;2023-02-08T03:39:36;0.60;99.90
23568;DHT22;11962;50.838;4.430;2023-02-08T03:42:07;0.60;99.90
23568;DHT22;11962;50.838;4.430;2023-02-08T03:44:41;0.60;99.90
23568;DHT22;11962;50.838;4.430;2023-02-08T03:47:22;0.60;99.90
23568;DHT22;11962;50.838;4.430;2023-02-08T03:49:53;0.60;99.90
23568;DHT22;11962;50.838;4.430;2023-02-08T03:52:21;0.60;99.90
23568;DHT22;11962;50.838;4.430;2023-02-08T03:55:09;0.60;99.90
23568;DHT22;11962;50.838;4.430;2023-02-08T04:00:15;0.60;99.90
23568;DHT22;11962;50.838;4.430;2023-02-08T04:02:58;0.60;99.90
23568;DHT22;11962;50.838;4.430;2023-02-08T04:05:32;0.60;99.90
23568;DHT22;11962;50.838;4.430;2023-02-08T04:07:58;0.60;99.90
23568;DHT22;11962;50.838;4.430;2023-02-08T04:10:23;0.50;99.90
23568;DHT22;11962;50.838;4.430;2023-02-08T04:12:50;0.40;99.90
23568;DHT22;11962;50.838;4.430;2023-02-08T04:15:16;0.40;99.90
23568;DHT22;11962;50.838;4.430;2023-02-08T04:17:42;0.50;99.90
23568;DHT22;11962;50.838;4.430;2023-02-08T04:20:08;0.50;99.90
23568;DHT22;11962;50.838;4.430;2023-02-08T04:22:52;0.50;99.90
23568;DHT22;11962;50.838;4.430;2023-02-08T04:25:18;0.50;99.90
23568;DHT22;11962;50.838;4.430;2023-02-08T04:27:44;0.50;99.90
23568;DHT22;11962;50.838;4.430;2023-02-08T04:30:10;0.50;99.90
23568;DHT22;11962;50.838;4.430;2023-02-08T04:32:36;0.40;99.90
23568;DHT22;11962;50.838;4.430;2023-02-08T04:35:02;0.40;99.90
23568;DHT22;11962;50.838;4.430;2023-02-08T04:37:28;0.40;99.90
23568;DHT22;11962;50.838;4.430;2023-02-08T04:39:54;0.40;99.90
23568;DHT22;11962;50.838;4.430;2023-02-08T04:42:20;0.40;99.90
23568;DHT22;11962;50.838;4.430;2023-02-08T04:44:46;0.40;99.90
23568;DHT22;11962;50.838;4.430;2023-02-08T04:47:11;0.40;99.90
23568;DHT22;11962;50.838;4.430;2023-02-08T04:49:37;0.50;99.90
23568;DHT22;11962;50.838;4.430;2023-02-08T04:52:03;0.50;99.90
23568;DHT22;11962;50.838;4.430;2023-02-08T04:54:29;0.50;99.90
23568;DHT22;11962;50.838;4.430;2023-02-08T04:56:55;0.60;99.90
23568;DHT22;11962;50.838;4.430;2023-02-08T04:59:20;0.60;99.90
23568;DHT22;11962;50.838;4.430;2023-02-08T05:01:49;0.60;99.90
23568;DHT22;11962;50.838;4.430;2023-02-08T05:04:14;0.60;99.90
23568;DHT22;11962;50.838;4.430;2023-02-08T05:06:40;0.60;99.90
23568;DHT22;11962;50.838;4.430;2023-02-08T05:09:07;0.60;99.90
23568;DHT22;11962;50.838;4.430;2023-02-08T05:11:33;0.60;99.90
23568;DHT22;11962;50.838;4.430;2023-02-08T05:13:59;0.70;99.90
23568;DHT22;11962;50.838;4.430;2023-02-08T05:16:25;0.70;99.90
23568;DHT22;11962;50.838;4.430;2023-02-08T05:18:51;0.70;99.90
23568;DHT22;11962;50.838;4.430;2023-02-08T05:21:19;0.70;99.90
23568;DHT22;11962;50.838;4.430;2023-02-08T05:23:48;0.70;99.90
23568;DHT22;11962;50.838;4.430;2023-02-08T05:26:14;0.70;99.90
23568;DHT22;11962;50.838;4.430;2023-02-08T05:28:40;0.70;99.90
23568;DHT22;11962;50.838;4.430;2023-02-08T05:31:11;0.70;99.90
23568;DHT22;11962;50.838;4.430;2023-02-08T05:33:37;0.70;99.90
23568;DHT22;11962;50.838;4.430;2023-02-08T05:36:03;0.70;99.90
23568;DHT22;11962;50.838;4.430;2023-02-08T05:38:29;0.80;99.90
23568;DHT22;11962;50.838;4.430;2023-02-08T05:40:54;0.80;99.90
23568;DHT22;11962;50.838;4.430;2023-02-08T05:43:20;0.80;99.90
23568;DHT22;11962;50.838;4.430;2023-02-08T05:49:08;0.80;99.90
23568;DHT22;11962;50.838;4.430;2023-02-08T05:51:34;0.80;99.90
23568;DHT22;11962;50.838;4.430;2023-02-08T05:54:00;0.80;99.90
23568;DHT22;11962;50.838;4.430;2023-02-08T05:56:25;0.80;99.90
23568;DHT22;11962;50.838;4.430;2023-02-08T05:58:52;0.80;99.90
23568;DHT22;11962;50.838;4.430;2023-02-08T06:01:19;0.80;99.90
23568;DHT22;11962;50.838;4.430;2023-02-08T06:03:44;0.80;99.90
23568;DHT22;11962;50.838;4.430;2023-02-08T06:06:10;0.80;99.90
23568;DHT22;11962;50.838;4.430;2023-02-08T06:08:39;0.80;99.90
23568;DHT22;11962;50.838;4.430;2023-02-08T06:11:05;0.80;99.90
23568;DHT22;11962;50.838;4.430;2023-02-08T06:13:31;0.80;99.90
23568;DHT22;11962;50.838;4.430;2023-02-08T06:16:00;0.80;99.90
23568;DHT22;11962;50.838;4.430;2023-02-08T06:18:26;0.80;99.90
23568;DHT22;11962;50.838;4.430;2023-02-08T06:20:52;0.80;99.90
23568;DHT22;11962;50.838;4.430;2023-02-08T06:23:19;0.80;99.90
23568;DHT22;11962;50.838;4.430;2023-02-08T06:25:45;0.70;99.90
23568;DHT22;11962;50.838;4.430;2023-02-08T06:28:11;0.70;99.90
23568;DHT22;11962;50.838;4.430;2023-02-08T06:30:37;0.60;99.90
23568;DHT22;11962;50.838;4.430;2023-02-08T06:33:03;0.60;99.90
23568;DHT22;11962;50.838;4.430;2023-02-08T06:35:29;0.60;99.90
23568;DHT22;11962;50.838;4.430;2023-02-08T06:37:55;0.70;99.90
23568;DHT22;11962;50.838;4.430;2023-02-08T06:40:21;0.70;99.90
23568;DHT22;11962;50.838;4.430;2023-02-08T06:42:47;0.60;99.90
23568;DHT22;11962;50.838;4.430;2023-02-08T06:45:13;0.60;99.90
23568;DHT22;11962;50.838;4.430;2023-02-08T06:47:38;0.60;99.90
23568;DHT22;11962;50.838;4.430;2023-02-08T06:50:05;0.60;99.90
23568;DHT22;11962;50.838;4.430;2023-02-08T06:52:31;0.60;99.90
23568;DHT22;11962;50.838;4.430;2023-02-08T06:54:56;0.50;99.90
23568;DHT22;11962;50.838;4.430;2023-02-08T06:57:22;0.50;99.90
23568;DHT22;11962;50.838;4.430;2023-02-08T06:59:48;0.50;99.90
23568;DHT22;11962;50.838;4.430;2023-02-08T07:02:17;0.50;99.90
23568;DHT22;11962;50.838;4.430;2023-02-08T07:04:43;0.50;99.90
23568;DHT22;11962;50.838;4.430;2023-02-08T07:07:11;0.60;99.90
23568;DHT22;11962;50.838;4.430;2023-02-08T07:09:37;0.60;99.90
23568;DHT22;11962;50.838;4.430;2023-02-08T07:12:03;0.60;99.90
23568;DHT22;11962;50.838;4.430;2023-02-08T07:14:32;0.60;99.90
23568;DHT22;11962;50.838;4.430;2023-02-08T07:16:58;0.70;99.90
23568;DHT22;11962;50.838;4.430;2023-02-08T07:19:24;0.70;99.90
23568;DHT22;11962;50.838;4.430;2023-02-08T07:21:50;0.80;99.90
23568;DHT22;11962;50.838;4.430;2023-02-08T07:24:15;0.80;99.90
23568;DHT22;11962;50.838;4.430;2023-02-08T07:26:41;0.80;99.90
23568;DHT22;11962;50.838;4.430;2023-02-08T07:29:07;0.90;99.90
23568;DHT22;11962;50.838;4.430;2023-02-08T07:31:32;0.90;99.90
23568;DHT22;11962;50.838;4.430;2023-02-08T07:33:58;0.90;99.90
23568;DHT22;11962;50.838;4.430;2023-02-08T07:36:24;0.90;99.90
23568;DHT22;11962;50.838;4.430;2023-02-08T07:38:50;1.00;99.90
23568;DHT22;11962;50.838;4.430;2023-02-08T07:41:16;1.00;99.90
23568;DHT22;11962;50.838;4.430;2023-02-08T07:43:42;1.10;99.90
23568;DHT22;11962;50.838;4.430;2023-02-08T07:46:11;1.10;99.90
23568;DHT22;11962;50.838;4.430;2023-02-08T07:48:37;1.10;99.90
23568;DHT22;11962;50.838;4.430;2023-02-08T07:51:03;1.10;99.90
23568;DHT22;11962;50.838;4.430;2023-02-08T07:53:31;1.20;99.90
23568;DHT22;11962;50.838;4.430;2023-02-08T07:55:57;1.20;99.90
23568;DHT22;11962;50.838;4.430;2023-02-08T07:58:23;1.40;99.90
23568;DHT22;11962;50.838;4.430;2023-02-08T08:00:49;1.40;99.90
23568;DHT22;11962;50.838;4.430;2023-02-08T08:03:15;1.50;99.90
23568;DHT22;11962;50.838;4.430;2023-02-08T08:05:41;1.50;99.90
23568;DHT22;11962;50.838;4.430;2023-02-08T08:08:09;1.60;99.90
23568;DHT22;11962;50.838;4.430;2023-02-08T08:10:35;1.70;99.90
23568;DHT22;11962;50.838;4.430;2023-02-08T08:13:01;1.70;99.90
23568;DHT22;11962;50.838;4.430;2023-02-08T08:15:27;1.80;99.90
23568;DHT22;11962;50.838;4.430;2023-02-08T08:17:52;1.80;99.90
23568;DHT22;11962;50.838;4.430;2023-02-08T08:20:18;1.80;99.90
23568;DHT22;11962;50.838;4.430;2023-02-08T08:22:44;1.80;99.90
23568;DHT22;11962;50.838;4.430;2023-02-08T08:25:10;1.80;99.90
23568;DHT22;11962;50.838;4.430;2023-02-08T08:27:36;1.90;99.90
23568;DHT22;11962;50.838;4.430;2023-02-08T08:30:05;2.00;99.90
23568;DHT22;11962;50.838;4.430;2023-02-08T08:32:31;2.10;99.90
23568;DHT22;11962;50.838;4.430;2023-02-08T08:34:57;2.20;99.90
23568;DHT22;11962;50.838;4.430;2023-02-08T08:37:23;2.20;99.90
23568;DHT22;11962;50.838;4.430;2023-02-08T08:39:48;2.30;99.90
23568;DHT22;11962;50.838;4.430;2023-02-08T08:42:14;2.40;99.90
23568;DHT22;11962;50.838;4.430;2023-02-08T08:44:40;2.50;99.90
23568;DHT22;11962;50.838;4.430;2023-02-08T08:47:08;2.60;99.90
23568;DHT22;11962;50.838;4.430;2023-02-08T08:49:34;2.70;99.90
23568;DHT22;11962;50.838;4.430;2023-02-08T08:52:00;2.80;99.90
23568;DHT22;11962;50.838;4.430;2023-02-08T08:55:00;2.80;99.90
23568;DHT22;11962;50.838;4.430;2023-02-08T08:57:25;2.90;99.90
23568;DHT22;11962;50.838;4.430;2023-02-08T08:59:51;3.00;99.90
23568;DHT22;11962;50.838;4.430;2023-02-08T09:02:17;3.10;99.90
23568;DHT22;11962;50.838;4.430;2023-02-08T09:04:42;3.20;99.90
23568;DHT22;11962;50.838;4.430;2023-02-08T09:07:17;3.30;99.90
23568;DHT22;11962;50.838;4.430;2023-02-08T09:09:43;3.40;99.90
23568;DHT22;11962;50.838;4.430;2023-02-08T09:12:13;3.50;99.90
23568;DHT22;11962;50.838;4.430;2023-02-08T09:14:40;3.60;99.90
23568;DHT22;11962;50.838;4.430;2023-02-08T09:17:06;3.80;99.90
23568;DHT22;11962;50.838;4.430;2023-02-08T09:22:54;4.70;99.90
23568;DHT22;11962;50.838;4.430;2023-02-08T09:25:52;7.20;99.90
23568;DHT22;11962;50.838;4.430;2023-02-08T09:28:17;11.20;99.90
23568;DHT22;11962;50.838;4.430;2023-02-08T09:30:43;14.80;95.50
23568;DHT22;11962;50.838;4.430;2023-02-08T09:33:09;17.60;83.50
23568;DHT22;11962;50.838;4.430;2023-02-08T09:35:35;19.80;65.70
23568;DHT22;11962;50.838;4.430;2023-02-08T09:38:01;21.50;56.80
23568;DHT22;11962;50.838;4.430;2023-02-08T09:49:37;26.70;40.90
23568;DHT22;11962;50.838;4.430;2023-02-08T09:52:12;27.30;38.70
23568;DHT22;11962;50.838;4.430;2023-02-08T09:54:46;27.90;38.00
23568;DHT22;11962;50.838;4.430;2023-02-08T09:57:20;28.30;36.60
23568;DHT22;11962;50.838;4.430;2023-02-08T10:00:00;28.80;35.30
23568;DHT22;11962;50.838;4.430;2023-02-08T10:02:31;29.30;34.90
23568;DHT22;11962;50.838;4.430;2023-02-08T10:05:06;29.70;33.30
23568;DHT22;11962;50.838;4.430;2023-02-08T10:07:34;30.20;32.90
23568;DHT22;11962;50.838;4.430;2023-02-08T10:10:13;30.60;31.30
23568;DHT22;11962;50.838;4.430;2023-02-08T10:12:49;30.90;31.10
23568;DHT22;11962;50.838;4.430;2023-02-08T10:26:00;31.40;28.10
23568;DHT22;11962;50.838;4.430;2023-02-08T10:31:48;31.40;27.00
23568;DHT22;11962;50.838;4.430;2023-02-08T10:37:20;31.40;26.30
23568;DHT22;11962;50.838;4.430;2023-02-08T10:39:49;31.30;25.10
23568;DHT22;11962;50.838;4.430;2023-02-08T10:42:18;31.00;25.10
23568;DHT22;11962;50.838;4.430;2023-02-08T10:44:55;31.00;25.10
23568;DHT22;11962;50.838;4.430;2023-02-08T10:50:08;31.30;24.60
23568;DHT22;11962;50.838;4.430;2023-02-08T10:52:36;31.30;23.90
23568;DHT22;11962;50.838;4.430;2023-02-08T10:58:24;30.90;23.30
23568;DHT22;11962;50.838;4.430;2023-02-08T11:00:51;30.50;23.30
23568;DHT22;11962;50.838;4.430;2023-02-08T11:03:23;30.20;23.00
23568;DHT22;11962;50.838;4.430;2023-02-08T11:05:49;30.20;23.00
23568;DHT22;11962;50.838;4.430;2023-02-08T11:08:23;30.40;23.00
23568;DHT22;11962;50.838;4.430;2023-02-08T11:11:03;30.60;23.10
23568;DHT22;11962;50.838;4.430;2023-02-08T11:16:03;30.30;22.70
23568;DHT22;11962;50.838;4.430;2023-02-08T11:18:31;30.20;22.80
23568;DHT22;11962;50.838;4.430;2023-02-08T11:21:05;30.10;22.90
23568;DHT22;11962;50.838;4.430;2023-02-08T11:23:35;30.10;23.20
23568;DHT22;11962;50.838;4.430;2023-02-08T11:26:15;29.90;22.70
23568;DHT22;11962;50.838;4.430;2023-02-08T11:28:42;29.70;22.60
23568;DHT22;11962;50.838;4.430;2023-02-08T11:31:17;29.40;23.10
23568;DHT22;11962;50.838;4.430;2023-02-08T11:36:31;28.90;23.30
23568;DHT22;11962;50.838;4.430;2023-02-08T11:39:00;28.70;23.30
23568;DHT22;11962;50.838;4.430;2023-02-08T11:41:27;28.50;23.40
23568;DHT22;11962;50.838;4.430;2023-02-08T11:43:57;28.10;23.60
23568;DHT22;11962;50.838;4.430;2023-02-08T11:46:25;27.80;24.00
23568;DHT22;11962;50.838;4.430;2023-02-08T11:48:53;27.70;24.10
23568;DHT22;11962;50.838;4.430;2023-02-08T11:51:27;27.40;24.30
23568;DHT22;11962;50.838;4.430;2023-02-08T11:53:53;27.20;24.10
23568;DHT22;11962;50.838;4.430;2023-02-08T11:56:21;27.00;24.50
23568;DHT22;11962;50.838;4.430;2023-02-08T12:01:43;25.90;24.80
23568;DHT22;11962;50.838;4.430;2023-02-08T12:04:11;25.00;25.30
23568;DHT22;11962;50.838;4.430;2023-02-08T12:09:08;23.60;26.00
23568;DHT22;11962;50.838;4.430;2023-02-08T12:15:13;21.90;27.30
23568;DHT22;11962;50.838;4.430;2023-02-08T12:17:50;20.90;27.90
23568;DHT22;11962;50.838;4.430;2023-02-08T12:28:24;17.90;30.60
23568;DHT22;11962;50.838;4.430;2023-02-08T12:39:25;16.10;32.00
23568;DHT22;11962;50.838;4.430;2023-02-08T12:42:40;15.80;32.90
23568;DHT22;11962;50.838;4.430;2023-02-08T12:51:00;14.70;34.10
23568;DHT22;11962;50.838;4.430;2023-02-08T12:53:40;14.20;35.10
23568;DHT22;11962;50.838;4.430;2023-02-08T12:56:34;13.90;36.00
23568;DHT22;11962;50.838;4.430;2023-02-08T12:59:01;13.70;36.00
23568;DHT22;11962;50.838;4.430;2023-02-08T13:01:32;13.50;37.10
23568;DHT22;11962;50.838;4.430;2023-02-08T13:06:29;13.00;37.20
23568;DHT22;11962;50.838;4.430;2023-02-08T13:12:19;12.50;37.70
23568;DHT22;11962;50.838;4.430;2023-02-08T13:14:53;12.40;38.40
23568;DHT22;11962;50.838;4.430;2023-02-08T13:17:25;12.30;38.70
23568;DHT22;11962;50.838;4.430;2023-02-08T13:20:04;12.20;39.40
23568;DHT22;11962;50.838;4.430;2023-02-08T13:25:20;11.80;39.80
23568;DHT22;11962;50.838;4.430;2023-02-08T13:27:48;11.80;40.30
23568;DHT22;11962;50.838;4.430;2023-02-08T13:30:21;11.70;40.60
23568;DHT22;11962;50.838;4.430;2023-02-08T13:32:49;11.70;40.60
23568;DHT22;11962;50.838;4.430;2023-02-08T13:35:24;11.70;41.20
23568;DHT22;11962;50.838;4.430;2023-02-08T13:41:19;11.70;41.80
23568;DHT22;11962;50.838;4.430;2023-02-08T13:43:52;11.70;42.60
23568;DHT22;11962;50.838;4.430;2023-02-08T13:46:24;11.60;42.80
23568;DHT22;11962;50.838;4.430;2023-02-08T13:48:53;11.60;43.30
23568;DHT22;11962;50.838;4.430;2023-02-08T14:04:51;11.50;43.00
23568;DHT22;11962;50.838;4.430;2023-02-08T14:07:41;11.60;43.40
23568;DHT22;11962;50.838;4.430;2023-02-08T14:10:23;11.60;43.50
23568;DHT22;11962;50.838;4.430;2023-02-08T14:16:33;11.40;43.70
23568;DHT22;11962;50.838;4.430;2023-02-08T14:21:47;11.20;44.80
23568;DHT22;11962;50.838;4.430;2023-02-08T14:24:23;11.20;44.50
23568;DHT22;11962;50.838;4.430;2023-02-08T14:27:05;11.20;44.80
23568;DHT22;11962;50.838;4.430;2023-02-08T14:30:26;11.20;45.50
23568;DHT22;11962;50.838;4.430;2023-02-08T14:32:48;11.20;46.20
23568;DHT22;11962;50.838;4.430;2023-02-08T14:37:43;11.10;46.90
23568;DHT22;11962;50.838;4.430;2023-02-08T14:43:28;11.10;47.40
23568;DHT22;11962;50.838;4.430;2023-02-08T14:45:55;11.00;47.70
23568;DHT22;11962;50.838;4.430;2023-02-08T14:48:36;11.00;47.90
23568;DHT22;11962;50.838;4.430;2023-02-08T14:53:48;10.70;48.60
23568;DHT22;11962;50.838;4.430;2023-02-08T14:56:31;10.70;48.90
23568;DHT22;11962;50.838;4.430;2023-02-08T14:59:14;10.70;49.00
23568;DHT22;11962;50.838;4.430;2023-02-08T15:01:42;10.70;49.40
23568;DHT22;11962;50.838;4.430;2023-02-08T15:04:09;10.60;49.40
23568;DHT22;11962;50.838;4.430;2023-02-08T15:07:00;10.60;49.50
23568;DHT22;11962;50.838;4.430;2023-02-08T15:09:30;10.60;49.60
23568;DHT22;11962;50.838;4.430;2023-02-08T15:12:03;10.60;49.70
23568;DHT22;11962;50.838;4.430;2023-02-08T15:14:32;10.50;50.00
23568;DHT22;11962;50.838;4.430;2023-02-08T15:16:58;10.40;50.30
23568;DHT22;11962;50.838;4.430;2023-02-08T15:19:35;10.30;50.30
23568;DHT22;11962;50.838;4.430;2023-02-08T15:24:59;10.30;51.10
23568;DHT22;11962;50.838;4.430;2023-02-08T15:27:35;10.30;50.60
23568;DHT22;11962;50.838;4.430;2023-02-08T15:30:00;10.30;50.60
23568;DHT22;11962;50.838;4.430;2023-02-08T15:32:27;10.30;50.50
23568;DHT22;11962;50.838;4.430;2023-02-08T15:34:59;10.20;50.50
23568;DHT22;11962;50.838;4.430;2023-02-08T15:37:29;10.10;50.60
23568;DHT22;11962;50.838;4.430;2023-02-08T15:39:58;10.00;50.50
23568;DHT22;11962;50.838;4.430;2023-02-08T15:42:26;10.00;50.70
23568;DHT22;11962;50.838;4.430;2023-02-08T15:44:54;9.90;50.80
23568;DHT22;11962;50.838;4.430;2023-02-08T15:49:52;9.80;51.20
23568;DHT22;11962;50.838;4.430;2023-02-08T15:52:22;9.80;51.20
23568;DHT22;11962;50.838;4.430;2023-02-08T15:54:48;9.70;51.10
23568;DHT22;11962;50.838;4.430;2023-02-08T15:57:34;9.70;51.00
23568;DHT22;11962;50.838;4.430;2023-02-08T16:00:24;9.60;51.10
23568;DHT22;11962;50.838;4.430;2023-02-08T16:02:56;9.50;51.40
23568;DHT22;11962;50.838;4.430;2023-02-08T16:05:28;9.40;51.60
23568;DHT22;11962;50.838;4.430;2023-02-08T16:07:55;9.30;51.80
23568;DHT22;11962;50.838;4.430;2023-02-08T16:10:23;9.20;51.70
23568;DHT22;11962;50.838;4.430;2023-02-08T16:12:55;9.10;51.70
23568;DHT22;11962;50.838;4.430;2023-02-08T16:21:38;8.90;51.80
23568;DHT22;11962;50.838;4.430;2023-02-08T16:26:48;8.80;52.10
23568;DHT22;11962;50.838;4.430;2023-02-08T16:29:31;8.80;52.20
23568;DHT22;11962;50.838;4.430;2023-02-08T16:32:27;8.80;52.20
23568;DHT22;11962;50.838;4.430;2023-02-08T16:34:56;8.70;52.20
23568;DHT22;11962;50.838;4.430;2023-02-08T16:37:33;8.70;52.30
23568;DHT22;11962;50.838;4.430;2023-02-08T16:40:01;8.60;52.40
23568;DHT22;11962;50.838;4.430;2023-02-08T16:48:47;8.50;53.00
23568;DHT22;11962;50.838;4.430;2023-02-08T16:51:30;8.40;53.10
23568;DHT22;11962;50.838;4.430;2023-02-08T16:54:04;8.40;53.30
23568;DHT22;11962;50.838;4.430;2023-02-08T16:56:36;8.30;53.70
23568;DHT22;11962;50.838;4.430;2023-02-08T16:59:36;8.30;54.00
23568;DHT22;11962;50.838;4.430;2023-02-08T17:02:01;8.20;54.10
23568;DHT22;11962;50.838;4.430;2023-02-08T17:04:27;8.10;54.50
23568;DHT22;11962;50.838;4.430;2023-02-08T17:06:58;8.10;54.60
23568;DHT22;11962;50.838;4.430;2023-02-08T17:09:24;8.10;54.80
23568;DHT22;11962;50.838;4.430;2023-02-08T17:11:49;8.00;55.00
23568;DHT22;11962;50.838;4.430;2023-02-08T17:14:16;8.00;55.50
23568;DHT22;11962;50.838;4.430;2023-02-08T17:16:42;7.90;55.90
23568;DHT22;11962;50.838;4.430;2023-02-08T17:19:14;7.90;56.40
23568;DHT22;11962;50.838;4.430;2023-02-08T17:21:40;7.80;56.80
23568;DHT22;11962;50.838;4.430;2023-02-08T17:24:06;7.70;57.10
23568;DHT22;11962;50.838;4.430;2023-02-08T17:26:37;7.70;57.70
23568;DHT22;11962;50.838;4.430;2023-02-08T17:29:04;7.60;58.10
23568;DHT22;11962;50.838;4.430;2023-02-08T17:31:30;7.50;58.70
23568;DHT22;11962;50.838;4.430;2023-02-08T17:33:56;7.40;58.90
23568;DHT22;11962;50.838;4.430;2023-02-08T17:36:30;7.40;59.50
23568;DHT22;11962;50.838;4.430;2023-02-08T17:38:57;7.30;60.00
23568;DHT22;11962;50.838;4.430;2023-02-08T17:41:23;7.30;60.30
23568;DHT22;11962;50.838;4.430;2023-02-08T17:43:50;7.20;60.80
23568;DHT22;11962;50.838;4.430;2023-02-08T17:46:22;7.10;61.30
23568;DHT22;11962;50.838;4.430;2023-02-08T17:48:49;7.10;62.50
23568;DHT22;11962;50.838;4.430;2023-02-08T17:51:18;7.00;63.10
23568;DHT22;11962;50.838;4.430;2023-02-08T17:53:44;6.90;63.70
23568;DHT22;11962;50.838;4.430;2023-02-08T17:56:15;6.90;64.80
23568;DHT22;11962;50.838;4.430;2023-02-08T17:58:41;6.80;65.30
23568;DHT22;11962;50.838;4.430;2023-02-08T18:01:08;6.80;65.80
23568;DHT22;11962;50.838;4.430;2023-02-08T18:03:35;6.70;66.30
23568;DHT22;11962;50.838;4.430;2023-02-08T18:06:01;6.60;67.50
23568;DHT22;11962;50.838;4.430;2023-02-08T18:08:27;6.50;68.60
23568;DHT22;11962;50.838;4.430;2023-02-08T18:10:53;6.50;69.20
23568;DHT22;11962;50.838;4.430;2023-02-08T18:13:18;6.40;69.60
23568;DHT22;11962;50.838;4.430;2023-02-08T18:18:48;6.30;69.90
23568;DHT22;11962;50.838;4.430;2023-02-08T18:21:16;6.20;69.80
23568;DHT22;11962;50.838;4.430;2023-02-08T18:23:43;6.20;69.90
23568;DHT22;11962;50.838;4.430;2023-02-08T18:26:12;6.20;69.80
23568;DHT22;11962;50.838;4.430;2023-02-08T18:28:38;6.10;69.90
23568;DHT22;11962;50.838;4.430;2023-02-08T18:31:29;6.00;70.00
23568;DHT22;11962;50.838;4.430;2023-02-08T18:33:55;6.00;70.40
23568;DHT22;11962;50.838;4.430;2023-02-08T18:36:22;6.00;70.60
23568;DHT22;11962;50.838;4.430;2023-02-08T18:38:50;5.90;71.00
23568;DHT22;11962;50.838;4.430;2023-02-08T18:41:22;5.90;71.80
23568;DHT22;11962;50.838;4.430;2023-02-08T18:43:48;5.80;72.50
23568;DHT22;11962;50.838;4.430;2023-02-08T18:46:16;5.70;73.00
23568;DHT22;11962;50.838;4.430;2023-02-08T18:48:43;5.70;73.30
23568;DHT22;11962;50.838;4.430;2023-02-08T18:51:11;5.60;73.60
23568;DHT22;11962;50.838;4.430;2023-02-08T18:53:39;5.60;73.90
23568;DHT22;11962;50.838;4.430;2023-02-08T18:56:07;5.50;74.20
23568;DHT22;11962;50.838;4.430;2023-02-08T18:58:33;5.50;74.50
23568;DHT22;11962;50.838;4.430;2023-02-08T19:04:39;5.40;74.80
23568;DHT22;11962;50.838;4.430;2023-02-08T19:07:06;5.30;75.10